Kezdőlap
METAR-TAF:

METAR-TAF

Repülőterek :

Pöstyén, Szlovákia

földrajzi szélesség: 48-37-30N, földrajzi hosszúság: 017-49-43E, magasság: 163 m

Jelenlegi meteorológiai megfigyelések

A jelentés 20 perccel ezelõtt készült, 10:00 UTC
Északi szél 5 kt, észak-északnyugati és északkeleti között változik
Hőmérséklet 8°C
Páratartalom 66%
Légköri nyomás 1033 hPa
Látótávolság 10 km, vagy több
felhőtlen 1500 m magasságban, és nincs gomolyfelhõ

METAR: LZPP 161000Z 01005KT 340V040 CAVOK 08/02 Q1033

Idő: 11:20 (10:20 UTC)

Előrejelzés

A jelentés 2 órával és 20 perccel ezelõtt készült, 08:00 UTC
Az előrejelzés 16-én 09 óra UTC és 16-én 18 óra UTC között érvényes
Észak-északkeleti szél 5 kt
Látótávolság 10 km, vagy több
felhőtlen 1500 m magasságban, és nincs gomolyfelhõ
16-én 11 óra UTC és 16-én 15 óra UTC között ideiglenes
Látótávolság 10 km, vagy több
Kevés felhő 4500 lábon

TAF: LZPP 160800Z 1609/1618 03005KT CAVOK TEMPO 1611/1615 9999 FEW045

Meteorológiai megfigyelések és előrejelzések több, mint 4000 repülőtéren (METAR és TAF jelentéseket).

A térképen piros és sárga pontok jelzik az elérhető meteorológiai állomásokat.

Mozgassa az egeret a pont fölött, hogy megjelenjen az állomás neve.

Azután kattintson az időjárási megfigyelések és előrejelzések megtekintéséhez.

A térkép megváltoztatása: kattintson a fekete keresztel jelölt zöld gombra ráközelítéshez, a vonallal jelölt zöld gombra távolításhoz, vagy a zöld nyilakra a szomszédos térképek eléréséhez.


METAR-TAF: